Time;durP1;ratioP1;P1;durP2;ratioP2;P2;SDS_P1;SDS_P2;PMS_P1;PMS_P2;Temp;Humidity;BMP_temperature;BMP_pressure;BME280_temperature;BME280_humidity;BME280_pressure;Samples;Min_cycle;Max_cycle;Signal;HPM_P1;HPM_P2
2021/04/19 00:01:32;;;;;;;40.05;21.75;;;6.00;99.90;;;;;;4950449;28;20488;-71
2021/04/19 00:03:58;;;;;;;41.05;22.50;;;5.90;99.90;;;;;;4951158;28;20373;-71
2021/04/19 00:06:24;;;;;;;40.10;22.92;;;5.90;99.90;;;;;;4950764;28;20027;-71
2021/04/19 00:08:49;;;;;;;41.40;23.05;;;5.90;99.90;;;;;;5016566;28;20081;-71
2021/04/19 00:11:15;;;;;;;39.45;22.20;;;5.80;99.90;;;;;;4950409;28;20027;-70
2021/04/19 00:13:42;;;;;;;41.75;22.58;;;5.90;99.90;;;;;;4949948;28;20452;-70
2021/04/19 00:16:07;;;;;;;41.42;22.42;;;5.90;99.90;;;;;;4950267;28;20026;-71
2021/04/19 00:18:33;;;;;;;38.67;22.73;;;5.90;99.90;;;;;;4950576;28;20034;-70
2021/04/19 00:20:58;;;;;;;41.88;23.35;;;6.00;99.90;;;;;;5016480;28;20039;-71
2021/04/19 00:23:24;;;;;;;41.95;23.02;;;6.10;99.90;;;;;;4950628;28;20028;-71
2021/04/19 00:25:49;;;;;;;45.70;23.75;;;6.10;99.90;;;;;;4950440;28;20031;-71
2021/04/19 00:28:15;;;;;;;46.50;24.13;;;6.20;99.90;;;;;;4950359;28;20031;-69
2021/04/19 00:30:41;;;;;;;41.30;23.67;;;6.20;99.90;;;;;;4950368;28;20023;-71
2021/04/19 00:33:06;;;;;;;43.33;25.33;;;6.40;99.90;;;;;;4950130;28;20019;-71
2021/04/19 00:35:32;;;;;;;48.53;25.52;;;6.40;99.90;;;;;;4950457;28;20388;-71
2021/04/19 00:37:58;;;;;;;46.40;24.27;;;6.50;99.90;;;;;;5016188;28;20027;-71
2021/04/19 00:40:23;;;;;;;42.65;22.98;;;6.50;99.90;;;;;;5015941;28;20114;-70
2021/04/19 00:42:51;;;;;;;43.20;23.88;;;6.50;99.90;;;;;;4949848;28;20027;-71
2021/04/19 00:45:18;;;;;;;44.25;24.15;;;6.50;99.90;;;;;;5016032;28;20031;-71
2021/04/19 00:47:47;;;;;;;47.60;26.30;;;6.50;99.90;;;;;;4950045;28;20393;-71
2021/04/19 00:50:26;;;;;;;44.92;25.88;;;6.50;99.90;;;;;;4950030;28;20023;-71
2021/04/19 00:52:53;;;;;;;43.67;23.15;;;6.70;99.90;;;;;;4950015;28;20027;-71
2021/04/19 00:55:18;;;;;;;43.30;23.38;;;6.80;99.90;;;;;;4950043;28;20023;-71
2021/04/19 00:57:45;;;;;;;46.00;25.33;;;6.80;99.90;;;;;;5016125;28;20027;-70
2021/04/19 01:00:23;;;;;;;44.55;24.67;;;6.90;99.90;;;;;;5015952;28;20027;-70
2021/04/19 01:02:49;;;;;;;48.33;26.10;;;6.80;99.90;;;;;;4949534;28;20023;-71
2021/04/19 01:05:23;;;;;;;46.95;24.40;;;6.80;99.90;;;;;;4949788;28;20034;-71
2021/04/19 01:07:49;;;;;;;48.40;25.92;;;6.80;99.90;;;;;;4949789;28;20049;-71
2021/04/19 01:10:15;;;;;;;47.30;25.33;;;6.80;99.90;;;;;;4949758;28;20110;-70
2021/04/19 01:12:40;;;;;;;52.28;26.77;;;6.80;99.90;;;;;;4949609;28;20035;-70
2021/04/19 01:15:06;;;;;;;46.47;25.80;;;6.80;99.90;;;;;;4949778;28;20027;-71
2021/04/19 01:17:32;;;;;;;46.70;25.00;;;6.90;99.90;;;;;;5015873;28;20177;-71
2021/04/19 01:19:58;;;;;;;46.45;27.13;;;6.90;99.90;;;;;;4949543;28;20382;-71
2021/04/19 01:22:23;;;;;;;48.25;25.95;;;6.90;99.90;;;;;;4949482;28;20106;-71
2021/04/19 01:24:49;;;;;;;46.88;25.35;;;6.90;99.90;;;;;;4949652;28;20393;-71
2021/04/19 01:27:14;;;;;;;48.08;25.65;;;6.90;99.90;;;;;;4952685;28;20035;-70
2021/04/19 01:29:40;;;;;;;50.28;25.55;;;6.90;99.90;;;;;;4953306;28;20020;-71
2021/04/19 01:32:06;;;;;;;49.83;26.67;;;6.90;99.90;;;;;;4952391;28;20030;-70
2021/04/19 01:34:32;;;;;;;55.22;28.17;;;6.90;99.90;;;;;;4952699;28;20037;-71
2021/04/19 01:36:57;;;;;;;50.20;27.77;;;6.90;99.90;;;;;;4953205;28;20380;-71
2021/04/19 01:39:23;;;;;;;45.67;24.85;;;6.90;99.90;;;;;;4953086;28;20027;-71
2021/04/19 01:41:48;;;;;;;49.58;25.15;;;6.80;99.90;;;;;;4952513;28;20051;-71
2021/04/19 01:44:14;;;;;;;47.60;24.85;;;6.90;99.90;;;;;;4952634;28;20062;-70
2021/04/19 01:46:41;;;;;;;43.92;23.48;;;6.90;99.90;;;;;;5019140;28;20432;-71
2021/04/19 01:49:32;;;;;;;42.75;22.75;;;6.90;99.90;;;;;;4952660;28;20066;-71
2021/04/19 01:51:59;;;;;;;44.97;25.52;;;6.90;99.90;;;;;;4952881;28;20521;-71
2021/04/19 01:54:24;;;;;;;43.67;23.10;;;6.90;99.90;;;;;;5018945;28;20039;-71
2021/04/19 01:56:50;;;;;;;45.22;24.60;;;6.80;99.90;;;;;;4952593;28;20041;-71
2021/04/19 01:59:17;;;;;;;70.80;32.90;;;6.80;99.90;;;;;;4952434;28;20031;-71
2021/04/19 02:02:14;;;;;;;80.20;34.67;;;6.80;99.90;;;;;;4952273;28;20135;-70
2021/04/19 02:04:49;;;;;;;64.35;29.98;;;6.80;99.90;;;;;;4952472;28;20093;-71
2021/04/19 02:07:41;;;;;;;54.40;27.80;;;6.60;99.90;;;;;;4952330;28;20035;-71
2021/04/19 02:10:33;;;;;;;76.32;35.25;;;6.40;99.90;;;;;;4952249;28;20058;-71
2021/04/19 02:13:07;;;;;;;50.67;26.58;;;6.40;99.90;;;;;;4952145;28;20019;-71
2021/04/19 02:15:59;;;;;;;47.80;25.02;;;6.20;99.90;;;;;;4952818;28;20031;-70
2021/04/19 02:19:05;;;;;;;50.80;25.88;;;6.10;99.90;;;;;;4952371;28;20039;-71
2021/04/19 02:21:39;;;;;;;49.15;26.15;;;6.10;99.90;;;;;;4951637;28;20035;-71
2021/04/19 02:24:11;;;;;;;51.08;26.10;;;6.20;99.90;;;;;;4952210;28;20532;-71
2021/04/19 02:26:42;;;;;;;48.80;24.55;;;6.20;99.90;;;;;;4952255;28;20031;-71
2021/04/19 02:29:14;;;;;;;48.92;25.52;;;6.20;99.90;;;;;;4951986;28;20027;-70
2021/04/19 02:31:55;;;;;;;44.13;23.48;;;6.40;99.90;;;;;;4951810;28;20019;-69
2021/04/19 02:34:21;;;;;;;41.00;22.27;;;6.40;99.90;;;;;;5018187;28;20050;-71
2021/04/19 02:36:50;;;;;;;44.88;24.13;;;6.30;99.90;;;;;;4951393;28;20059;-71
2021/04/19 02:39:17;;;;;;;42.78;22.27;;;6.30;99.90;;;;;;4951974;28;20106;-71
2021/04/19 02:41:48;;;;;;;50.72;26.35;;;6.20;99.90;;;;;;4950845;28;20031;-71
2021/04/19 02:44:16;;;;;;;48.78;26.95;;;6.00;99.90;;;;;;5018220;28;20027;-71
2021/04/19 02:46:43;;;;;;;49.17;26.10;;;6.10;99.90;;;;;;4951775;28;20023;-71
2021/04/19 02:49:09;;;;;;;45.95;24.75;;;5.90;99.90;;;;;;4951805;28;20046;-71
2021/04/19 02:51:38;;;;;;;48.20;25.58;;;5.80;99.90;;;;;;5017671;28;20118;-71
2021/04/19 02:54:04;;;;;;;50.83;27.42;;;5.70;99.90;;;;;;4951638;28;20027;-71
2021/04/19 02:56:33;;;;;;;52.53;26.13;;;5.70;99.90;;;;;;4951602;28;20031;-71
2021/04/19 02:59:04;;;;;;;50.35;25.88;;;6.00;99.90;;;;;;4951711;28;20055;-71
2021/04/19 03:01:33;;;;;;;47.85;26.50;;;6.20;99.90;;;;;;4951392;28;20027;-71
2021/04/19 03:04:01;;;;;;;50.22;25.60;;;6.10;99.90;;;;;;4951574;28;20027;-71
2021/04/19 03:06:30;;;;;;;49.17;24.83;;;5.90;99.90;;;;;;5017729;28;20443;-70
2021/04/19 03:09:01;;;;;;;45.00;24.38;;;5.90;99.90;;;;;;4951735;28;20058;-71
2021/04/19 03:11:37;;;;;;;44.83;24.45;;;5.80;99.90;;;;;;4951575;28;20050;-71
2021/04/19 03:14:06;;;;;;;44.72;23.63;;;5.70;99.90;;;;;;4951476;28;20028;-70
2021/04/19 03:16:34;;;;;;;43.83;23.92;;;5.70;99.90;;;;;;4951477;28;20377;-70
2021/04/19 03:19:02;;;;;;;46.67;25.10;;;5.80;99.90;;;;;;4951360;28;20027;-70
2021/04/19 03:21:29;;;;;;;43.63;25.00;;;5.80;99.90;;;;;;4950768;28;20031;-71
2021/04/19 03:23:57;;;;;;;43.95;23.50;;;5.80;99.90;;;;;;4951282;28;20042;-71
2021/04/19 03:26:29;;;;;;;41.47;22.92;;;5.80;99.90;;;;;;5017539;28;20081;-70
2021/04/19 03:28:57;;;;;;;45.63;24.85;;;5.70;99.90;;;;;;5017445;28;20039;-71
2021/04/19 03:31:26;;;;;;;41.92;23.27;;;5.60;99.90;;;;;;5011348;28;20032;-70
2021/04/19 03:33:55;;;;;;;45.38;23.52;;;5.60;99.90;;;;;;4940240;28;20027;-71
2021/04/19 03:36:24;;;;;;;43.38;24.02;;;5.50;99.90;;;;;;4938579;28;20027;-70
2021/04/19 03:38:50;;;;;;;43.80;22.40;;;5.30;99.90;;;;;;4948441;28;20125;-70
2021/04/19 03:41:17;;;;;;;40.28;21.58;;;5.20;99.90;;;;;;4949755;28;20031;-71
2021/04/19 03:43:49;;;;;;;41.08;22.27;;;5.10;99.90;;;;;;4949960;28;20485;-71
2021/04/19 03:46:16;;;;;;;40.35;21.17;;;5.00;99.90;;;;;;4951036;28;20085;-70
2021/04/19 03:48:43;;;;;;;45.67;23.92;;;4.90;99.90;;;;;;4950826;28;20481;-71
2021/04/19 03:51:14;;;;;;;41.38;21.60;;;4.80;99.90;;;;;;5016858;28;20032;-71
2021/04/19 03:53:42;;;;;;;43.13;22.23;;;4.90;99.90;;;;;;4950790;28;20023;-71
2021/04/19 03:56:11;;;;;;;42.75;21.67;;;5.00;99.90;;;;;;5016802;28;20118;-70
2021/04/19 03:58:37;;;;;;;41.20;22.40;;;4.90;99.90;;;;;;4950855;28;20032;-71
2021/04/19 04:01:06;;;;;;;41.03;21.23;;;4.90;99.90;;;;;;4950585;28;20031;-71
2021/04/19 04:03:33;;;;;;;37.17;20.40;;;4.90;99.90;;;;;;4950502;28;20520;-71
2021/04/19 04:05:59;;;;;;;38.38;21.05;;;4.90;99.90;;;;;;4950726;28;20392;-71
2021/04/19 04:08:26;;;;;;;40.53;21.48;;;4.90;99.90;;;;;;4950764;28;20085;-71
2021/04/19 04:10:53;;;;;;;37.47;20.88;;;4.90;99.90;;;;;;5016521;28;20027;-71
2021/04/19 04:13:19;;;;;;;36.78;19.98;;;4.90;99.90;;;;;;4950303;28;20480;-71
2021/04/19 04:15:56;;;;;;;36.88;20.67;;;5.00;99.90;;;;;;4950470;28;20035;-71
2021/04/19 04:18:21;;;;;;;36.67;21.13;;;4.90;99.90;;;;;;4950410;28;20517;-71
2021/04/19 04:20:48;;;;;;;34.83;19.77;;;5.00;99.90;;;;;;4950123;28;20047;-71
2021/04/19 04:23:15;;;;;;;33.10;18.92;;;5.10;99.90;;;;;;4950277;28;20033;-71
2021/04/19 04:25:41;;;;;;;35.05;19.52;;;5.20;99.90;;;;;;4950348;28;20031;-71
2021/04/19 04:28:07;;;;;;;31.90;17.80;;;5.20;99.90;;;;;;4950356;28;20080;-71
2021/04/19 04:30:35;;;;;;;31.83;17.77;;;5.20;99.90;;;;;;4950368;28;20024;-71
2021/04/19 04:33:05;;;;;;;32.90;17.83;;;5.20;99.90;;;;;;4949861;28;20020;-70
2021/04/19 04:35:31;;;;;;;30.33;18.10;;;5.20;99.90;;;;;;4950340;28;20030;-71
2021/04/19 04:37:58;;;;;;;31.23;17.75;;;5.20;99.90;;;;;;4950102;28;20130;-70
2021/04/19 04:40:28;;;;;;;28.23;16.77;;;5.20;99.90;;;;;;5016204;28;20042;-70
2021/04/19 04:42:59;;;;;;;31.63;18.08;;;5.20;99.90;;;;;;4949890;28;20502;-70
2021/04/19 04:45:25;;;;;;;32.08;18.73;;;5.20;99.90;;;;;;5020814;28;20127;-70
2021/04/19 04:48:01;;;;;;;30.25;17.67;;;5.10;99.90;;;;;;4948491;28;20114;-70
2021/04/19 04:50:36;;;;;;;27.92;16.75;;;5.20;99.90;;;;;;4949683;28;20031;-69
2021/04/19 04:53:33;;;;;;;32.03;18.90;;;5.30;99.90;;;;;;5015809;28;20027;-70
2021/04/19 04:56:00;;;;;;;29.80;17.67;;;5.30;99.90;;;;;;4950112;28;20039;-72
2021/04/19 04:58:26;;;;;;;32.00;16.95;;;5.30;99.90;;;;;;4949878;28;20030;-72
2021/04/19 05:00:53;;;;;;;31.90;18.63;;;5.30;99.90;;;;;;4951202;28;20031;-73
2021/04/19 05:03:20;;;;;;;32.65;17.75;;;5.40;99.90;;;;;;5019937;28;20059;-71
2021/04/19 05:05:46;;;;;;;32.85;18.38;;;5.60;99.90;;;;;;5020063;28;20027;-71
2021/04/19 05:08:13;;;;;;;32.35;18.42;;;5.60;99.90;;;;;;5019537;28;20401;-71
2021/04/19 05:10:39;;;;;;;38.15;19.92;;;5.50;99.90;;;;;;4953350;28;20023;-75
2021/04/19 05:13:18;;;;;;;37.67;20.13;;;5.50;99.90;;;;;;5019657;28;20484;-70
2021/04/19 05:15:46;;;;;;;38.75;20.20;;;5.50;99.90;;;;;;4953013;28;20031;-71
2021/04/19 05:18:16;;;;;;;36.78;19.55;;;5.50;99.90;;;;;;5018371;28;20122;-72
2021/04/19 05:20:42;;;;;;;37.58;20.00;;;5.40;99.90;;;;;;5020060;28;20071;-70
2021/04/19 05:23:12;;;;;;;43.97;20.98;;;5.40;99.90;;;;;;4952893;28;20065;-69
2021/04/19 05:25:38;;;;;;;36.07;19.83;;;5.30;99.90;;;;;;4953239;28;20539;-70
2021/04/19 05:28:04;;;;;;;65.00;22.63;;;5.40;99.90;;;;;;5019544;28;20031;-71
2021/04/19 05:30:30;;;;;;;50.88;21.35;;;5.40;99.90;;;;;;4953033;28;20077;-71
2021/04/19 05:32:58;;;;;;;52.03;25.38;;;5.30;99.90;;;;;;4952851;28;20034;-71
2021/04/19 05:35:23;;;;;;;54.67;22.80;;;5.30;99.90;;;;;;4953103;28;20023;-71
2021/04/19 05:37:50;;;;;;;54.30;24.77;;;5.30;99.90;;;;;;4953018;28;20041;-71
2021/04/19 05:40:21;;;;;;;57.83;23.90;;;5.40;99.90;;;;;;4953002;28;20031;-71
2021/04/19 05:42:47;;;;;;;55.97;21.27;;;5.40;99.90;;;;;;4952797;28;20119;-71
2021/04/19 05:45:17;;;;;;;51.95;22.98;;;5.60;99.90;;;;;;4952935;28;20469;-71
2021/04/19 05:47:47;;;;;;;64.45;22.80;;;5.70;99.90;;;;;;5019998;28;20094;-76
2021/04/19 05:50:15;;;;;;;49.05;22.67;;;5.60;99.90;;;;;;5019530;28;20033;-71
2021/04/19 05:52:42;;;;;;;71.15;24.13;;;5.60;99.90;;;;;;5019142;28;20034;-71
2021/04/19 05:55:09;;;;;;;76.78;26.13;;;5.60;99.90;;;;;;5019014;28;20027;-70
2021/04/19 05:58:01;;;;;;;81.43;24.95;;;5.60;99.90;;;;;;5018944;28;20042;-71
2021/04/19 06:00:43;;;;;;;67.43;25.23;;;5.60;99.90;;;;;;4952272;28;20030;-70
2021/04/19 06:03:27;;;;;;;71.28;24.77;;;5.70;99.90;;;;;;5018854;28;20039;-71
2021/04/19 06:05:57;;;;;;;59.22;24.90;;;5.80;99.90;;;;;;4952472;28;20031;-71
2021/04/19 06:08:28;;;;;;;85.90;26.15;;;5.90;99.90;;;;;;5018687;28;20123;-71
2021/04/19 06:11:25;;;;;;;84.78;25.35;;;6.00;99.90;;;;;;4952307;28;20023;-71
2021/04/19 06:13:53;;;;;;;81.25;27.60;;;6.00;99.90;;;;;;4953005;28;20560;-70
2021/04/19 06:16:19;;;;;;;93.68;28.00;;;6.10;99.90;;;;;;4952154;29;20027;-70
2021/04/19 06:18:46;;;;;;;82.13;29.35;;;6.20;99.90;;;;;;4952174;28;20073;-71
2021/04/19 06:21:12;;;;;;;77.28;34.15;;;6.20;99.90;;;;;;4945704;28;20062;-69
2021/04/19 06:23:40;;;;;;;69.32;29.80;;;6.20;99.90;;;;;;4938474;28;20062;-71
2021/04/19 06:26:09;;;;;;;72.25;30.27;;;6.20;99.90;;;;;;4933093;28;20039;-71
2021/04/19 06:28:36;;;;;;;84.72;27.85;;;6.30;99.90;;;;;;5017886;28;20528;-71
2021/04/19 06:31:04;;;;;;;61.40;27.02;;;6.40;99.90;;;;;;4952009;28;20035;-70
2021/04/19 06:33:32;;;;;;;57.72;26.60;;;6.60;99.90;;;;;;4946122;28;20020;-71
2021/04/19 06:35:58;;;;;;;57.90;27.88;;;6.60;99.90;;;;;;4943485;28;20081;-71
2021/04/19 06:38:24;;;;;;;57.42;27.23;;;6.60;99.90;;;;;;4952288;28;20027;-71
2021/04/19 06:40:50;;;;;;;57.92;26.48;;;6.70;99.90;;;;;;4951650;28;20068;-71
2021/04/19 06:43:16;;;;;;;54.58;28.88;;;6.80;99.90;;;;;;5017513;28;20086;-71
2021/04/19 06:45:42;;;;;;;53.67;26.48;;;6.90;99.90;;;;;;4950739;28;20059;-70
2021/04/19 06:48:10;;;;;;;62.33;28.10;;;7.00;99.90;;;;;;5016516;28;20062;-70
2021/04/19 06:50:37;;;;;;;57.17;26.63;;;7.10;99.90;;;;;;5017252;28;20028;-71
2021/04/19 06:53:03;;;;;;;50.88;25.65;;;7.20;99.90;;;;;;4951492;29;20024;-71
2021/04/19 06:55:29;;;;;;;53.55;26.65;;;7.20;99.90;;;;;;4951693;28;20024;-70
2021/04/19 06:57:57;;;;;;;51.67;26.45;;;7.20;99.90;;;;;;4951805;28;20093;-70
2021/04/19 07:00:28;;;;;;;63.83;25.92;;;7.20;99.90;;;;;;4951567;28;20043;-70
2021/04/19 07:02:57;;;;;;;52.97;24.85;;;7.30;99.90;;;;;;4951301;29;20106;-70
2021/04/19 07:05:25;;;;;;;55.35;25.60;;;7.30;99.90;;;;;;4950787;28;20027;-70
2021/04/19 07:08:17;;;;;;;60.97;26.60;;;7.30;99.90;;;;;;4951408;28;20508;-71
2021/04/19 07:10:45;;;;;;;55.15;24.38;;;7.50;99.90;;;;;;4951475;29;20029;-71
2021/04/19 07:13:13;;;;;;;52.88;25.23;;;7.60;99.90;;;;;;4951191;28;20114;-71
2021/04/19 07:15:41;;;;;;;50.15;24.60;;;7.70;99.90;;;;;;4938792;28;20032;-70
2021/04/19 07:18:07;;;;;;;56.13;25.98;;;7.80;99.90;;;;;;4932296;28;20039;-70
2021/04/19 07:20:33;;;;;;;58.83;25.83;;;7.90;99.90;;;;;;4934804;28;20036;-70
2021/04/19 07:23:00;;;;;;;58.90;26.05;;;8.00;99.90;;;;;;5023648;28;20378;-70
2021/04/19 07:25:27;;;;;;;66.32;27.58;;;8.10;99.90;;;;;;4941649;28;20023;-70
2021/04/19 07:27:54;;;;;;;59.55;25.80;;;8.20;99.90;;;;;;5022411;28;20028;-70
2021/04/19 07:30:19;;;;;;;49.80;25.55;;;8.20;99.90;;;;;;5007661;28;20110;-71
2021/04/19 07:32:45;;;;;;;46.17;22.98;;;8.20;99.90;;;;;;4941274;28;20098;-71
2021/04/19 07:35:11;;;;;;;63.42;26.83;;;8.20;99.90;;;;;;4940211;29;20028;-71
2021/04/19 07:37:37;;;;;;;57.78;26.45;;;8.30;99.90;;;;;;4941834;28;20027;-70
2021/04/19 07:40:05;;;;;;;60.53;30.05;;;8.30;99.90;;;;;;4941094;28;20439;-70
2021/04/19 07:42:33;;;;;;;60.35;28.02;;;8.40;99.90;;;;;;4939737;28;20043;-70
2021/04/19 07:44:58;;;;;;;60.20;30.67;;;8.50;99.90;;;;;;4941625;28;20019;-70
2021/04/19 07:47:26;;;;;;;69.82;31.08;;;8.60;99.90;;;;;;4939045;28;20162;-71
2021/04/19 07:50:18;;;;;;;60.83;27.63;;;8.80;99.90;;;;;;4941136;28;20058;-71
2021/04/19 07:52:49;;;;;;;59.60;27.58;;;8.80;99.90;;;;;;4941276;28;20460;-71
2021/04/19 07:55:18;;;;;;;58.58;28.10;;;8.80;99.90;;;;;;4941079;28;20051;-71
2021/04/19 07:57:46;;;;;;;53.85;26.80;;;8.90;99.90;;;;;;4938464;28;20070;-71
2021/04/19 08:00:40;;;;;;;52.88;25.38;;;9.10;99.90;;;;;;4997035;28;20116;-71
2021/04/19 08:03:14;;;;;;;61.95;28.67;;;9.10;99.90;;;;;;4931358;28;20024;-71
2021/04/19 08:05:41;;;;;;;58.40;27.33;;;9.10;99.90;;;;;;4931658;29;20035;-71
2021/04/19 08:08:08;;;;;;;55.80;28.75;;;9.20;99.90;;;;;;4931403;28;20032;-70
2021/04/19 08:10:35;;;;;;;55.70;28.42;;;9.30;99.90;;;;;;4931459;28;20028;-71
2021/04/19 08:13:10;;;;;;;57.80;28.35;;;9.50;99.90;;;;;;4931362;28;20079;-71
2021/04/19 08:15:38;;;;;;;59.30;28.98;;;9.60;99.90;;;;;;4931520;29;20485;-71
2021/04/19 08:18:13;;;;;;;57.13;30.23;;;9.50;99.90;;;;;;4931576;28;20032;-71
2021/04/19 08:20:54;;;;;;;53.15;28.20;;;9.40;99.90;;;;;;4931224;28;20039;-71
2021/04/19 08:23:21;;;;;;;50.72;25.88;;;9.30;99.90;;;;;;4931113;29;20046;-71
2021/04/19 08:25:49;;;;;;;45.83;23.50;;;9.40;99.90;;;;;;4931313;28;20024;-71
2021/04/19 08:28:27;;;;;;;53.75;27.67;;;9.50;99.90;;;;;;4931109;28;20050;-71
2021/04/19 08:30:58;;;;;;;46.25;23.83;;;9.60;99.90;;;;;;4996681;28;20111;-71
2021/04/19 08:33:24;;;;;;;49.92;24.83;;;9.40;99.90;;;;;;4930990;28;20027;-71
2021/04/19 08:35:52;;;;;;;47.80;26.17;;;9.50;99.90;;;;;;4930120;28;20038;-71
2021/04/19 08:38:21;;;;;;;50.00;24.83;;;9.60;99.90;;;;;;4931133;29;20039;-70
2021/04/19 08:40:49;;;;;;;57.50;28.30;;;9.70;99.90;;;;;;4931075;28;20028;-71
2021/04/19 08:43:21;;;;;;;53.88;27.52;;;9.80;99.90;;;;;;4930870;28;20637;-71
2021/04/19 08:45:48;;;;;;;48.17;24.42;;;10.10;99.90;;;;;;4931227;28;20671;-71
2021/04/19 08:48:14;;;;;;;45.72;24.58;;;10.50;99.90;;;;;;4931318;28;20474;-71
2021/04/19 08:50:46;;;;;;;48.08;25.45;;;10.80;99.90;;;;;;4930933;28;20033;-71
2021/04/19 08:53:13;;;;;;;48.50;25.98;;;11.00;99.90;;;;;;4930674;28;20016;-71
2021/04/19 08:55:41;;;;;;;45.83;24.83;;;11.20;99.90;;;;;;4931058;28;20028;-71
2021/04/19 08:58:09;;;;;;;44.70;24.17;;;11.20;99.90;;;;;;4930780;28;20158;-71
2021/04/19 09:00:41;;;;;;;46.90;24.88;;;11.20;99.90;;;;;;4930812;28;20031;-71
2021/04/19 09:03:07;;;;;;;43.20;24.65;;;11.20;99.90;;;;;;4930718;28;20125;-71
2021/04/19 09:05:33;;;;;;;40.58;23.02;;;11.30;99.90;;;;;;4930935;28;20028;-71
2021/04/19 09:08:06;;;;;;;42.38;24.15;;;11.40;99.90;;;;;;4930652;28;20381;-71
2021/04/19 09:10:49;;;;;;;41.33;23.05;;;11.60;99.90;;;;;;4930238;28;20032;-71
2021/04/19 09:13:31;;;;;;;41.38;24.17;;;11.70;99.90;;;;;;4930414;28;20032;-71
2021/04/19 09:16:12;;;;;;;40.25;23.02;;;11.90;99.90;;;;;;4996158;28;20027;-71
2021/04/19 09:18:39;;;;;;;39.03;23.33;;;12.00;99.90;;;;;;4997740;28;20023;-71
2021/04/19 09:21:04;;;;;;;38.22;24.27;;;11.90;99.90;;;;;;4930924;28;20131;-71
2021/04/19 09:23:32;;;;;;;41.03;23.02;;;12.10;99.90;;;;;;4930370;28;20064;-72
2021/04/19 09:25:59;;;;;;;37.70;21.58;;;12.40;99.90;;;;;;4930725;29;20628;-71
2021/04/19 09:28:39;;;;;;;38.20;22.80;;;12.50;99.90;;;;;;4930434;28;20039;-75
2021/04/19 09:31:06;;;;;;;;;;;12.60;99.90;;;;;;4930988;28;20501;-72
2021/04/19 09:33:31;;;;;;;37.50;21.48;;;12.70;99.80;;;;;;5009578;28;19918;-72
2021/04/19 09:35:57;;;;;;;36.75;21.55;;;12.60;99.90;;;;;;5032378;28;20028;-72
2021/04/19 09:38:33;;;;;;;34.53;21.45;;;12.80;99.50;;;;;;4949536;28;20027;-72
2021/04/19 09:41:06;;;;;;;37.22;21.55;;;12.70;99.80;;;;;;4949615;28;20114;-72
2021/04/19 09:43:38;;;;;;;35.63;20.83;;;12.60;99.90;;;;;;4949331;28;20063;-71
2021/04/19 09:46:16;;;;;;;34.53;19.67;;;12.60;99.90;;;;;;5032339;28;20035;-72
2021/04/19 09:49:03;;;;;;;35.42;19.92;;;12.50;99.40;;;;;;4952631;28;20032;-72
2021/04/19 09:51:43;;;;;;;36.75;22.63;;;12.40;99.90;;;;;;4952428;28;20027;-71
2021/04/19 09:54:10;;;;;;;34.05;21.10;;;12.50;99.90;;;;;;4952747;29;20141;-72
2021/04/19 09:56:46;;;;;;;35.35;21.80;;;12.60;99.80;;;;;;4952718;28;20074;-72
2021/04/19 09:59:16;;;;;;;31.52;20.60;;;12.70;99.90;;;;;;5035775;28;20108;-72
2021/04/19 10:01:45;;;;;;;32.70;20.27;;;13.10;99.90;;;;;;4952404;28;20374;-72
2021/04/19 10:04:13;;;;;;;33.50;21.23;;;13.20;99.60;;;;;;5019423;28;20029;-72
2021/04/19 10:06:46;;;;;;;38.47;21.92;;;13.00;98.80;;;;;;4952784;28;20032;-72
2021/04/19 10:09:14;;;;;;;31.58;20.50;;;13.00;98.90;;;;;;4952964;28;20031;-72
2021/04/19 10:11:47;;;;;;;35.05;21.20;;;12.80;98.90;;;;;;5035085;28;20030;-72
2021/04/19 10:14:15;;;;;;;34.83;21.02;;;12.60;99.00;;;;;;5035787;28;20142;-72
2021/04/19 10:16:46;;;;;;;36.50;21.92;;;12.40;99.80;;;;;;4952363;28;20024;-72
2021/04/19 10:19:13;;;;;;;34.63;20.48;;;12.40;99.70;;;;;;4952258;29;20084;-72
2021/04/19 10:21:39;;;;;;;34.08;20.10;;;12.30;99.10;;;;;;4951829;28;20066;-72
2021/04/19 10:24:14;;;;;;;31.73;19.90;;;12.20;99.30;;;;;;4952371;28;20354;-72
2021/04/19 10:26:40;;;;;;;32.17;19.40;;;12.10;99.60;;;;;;4952323;28;20038;-72
2021/04/19 10:29:13;;;;;;;34.53;19.90;;;12.00;99.50;;;;;;4952092;28;20031;-72
2021/04/19 10:31:48;;;;;;;34.50;19.95;;;11.90;99.70;;;;;;4951966;28;20077;-72
2021/04/19 10:34:14;;;;;;;30.13;19.50;;;12.00;99.90;;;;;;4951992;28;20019;-72
2021/04/19 10:36:55;;;;;;;28.98;17.98;;;12.20;99.90;;;;;;5035145;28;20034;-72
2021/04/19 10:39:24;;;;;;;31.70;19.15;;;12.50;99.20;;;;;;4952101;28;20427;-72
2021/04/19 10:41:53;;;;;;;30.13;18.83;;;12.70;99.50;;;;;;4951552;28;20161;-72
2021/04/19 10:44:30;;;;;;;28.58;18.98;;;12.80;99.80;;;;;;4952141;28;20031;-72
2021/04/19 10:46:55;;;;;;;29.48;19.30;;;12.90;99.70;;;;;;4951932;28;20042;-72
2021/04/19 10:49:26;;;;;;;31.02;19.10;;;12.90;99.80;;;;;;5034547;28;20492;-72
2021/04/19 10:51:58;;;;;;;28.52;18.42;;;12.90;99.40;;;;;;4951595;28;20027;-72
2021/04/19 10:54:41;;;;;;;31.60;19.35;;;12.90;99.70;;;;;;5034710;28;20110;-72
2021/04/19 10:57:18;;;;;;;28.75;19.55;;;12.70;99.40;;;;;;4951833;28;20027;-72
2021/04/19 10:59:44;;;;;;;28.80;19.00;;;12.40;99.90;;;;;;5034008;28;20397;-72
2021/04/19 11:02:11;;;;;;;31.27;20.13;;;12.10;99.90;;;;;;4951525;28;20019;-72
2021/04/19 11:04:38;;;;;;;32.55;20.90;;;11.90;99.90;;;;;;4951667;28;20548;-72
2021/04/19 11:07:43;;;;;;;32.40;19.85;;;11.90;99.90;;;;;;4951477;28;20057;-72
2021/04/19 11:10:24;;;;;;;28.67;19.13;;;12.00;99.90;;;;;;4970964;28;20042;-72
2021/04/19 11:13:07;;;;;;;33.78;21.90;;;12.10;99.90;;;;;;4970726;28;20035;-72
2021/04/19 11:15:38;;;;;;;35.08;21.10;;;12.20;99.90;;;;;;4971233;28;20509;-72
2021/04/19 11:18:27;;;;;;;29.85;20.10;;;12.30;99.90;;;;;;4954848;28;20034;-72
2021/04/19 11:20:55;;;;;;;31.10;19.88;;;12.50;99.90;;;;;;4971365;28;20094;-72
2021/04/19 11:23:26;;;;;;;27.60;18.75;;;12.60;99.90;;;;;;4970508;28;20042;-72
2021/04/19 11:25:52;;;;;;;;;;;12.80;99.90;;;;;;4955080;28;20557;-71
2021/04/19 11:28:29;;;;;;;27.17;18.40;;;13.00;99.50;;;;;;4970660;28;19910;-72
2021/04/19 11:30:56;;;;;;;24.95;18.52;;;13.10;98.90;;;;;;4970655;28;20044;-72
2021/04/19 11:33:23;;;;;;;28.70;18.92;;;13.40;98.70;;;;;;4970548;28;20465;-72
2021/04/19 11:36:00;;;;;;;28.02;18.63;;;13.80;98.70;;;;;;4970647;28;20025;-72
2021/04/19 11:38:26;;;;;;;30.00;21.38;;;13.90;97.70;;;;;;4954262;28;20505;-72
2021/04/19 11:41:06;;;;;;;30.10;19.80;;;13.80;97.20;;;;;;4970661;28;20082;-72
2021/04/19 11:43:34;;;;;;;24.42;17.67;;;13.80;97.50;;;;;;4954180;28;20038;-72
2021/04/19 11:46:14;;;;;;;26.60;18.35;;;14.00;97.60;;;;;;4957843;28;20035;-72
2021/04/19 11:48:44;;;;;;;32.90;20.98;;;14.00;97.10;;;;;;4950627;28;20031;-72
2021/04/19 11:51:11;;;;;;;30.90;21.63;;;13.90;96.90;;;;;;4950905;28;20024;-72
2021/04/19 11:53:39;;;;;;;31.10;20.35;;;13.70;97.50;;;;;;5016735;28;20141;-72
2021/04/19 11:56:06;;;;;;;23.63;17.77;;;13.60;97.90;;;;;;4950833;28;20027;-72
2021/04/19 11:58:34;;;;;;;22.60;16.02;;;13.50;97.10;;;;;;4951199;28;20024;-72
2021/04/19 12:00:59;;;;;;;22.92;16.95;;;13.40;97.90;;;;;;4950735;28;20283;-72
2021/04/19 12:03:26;;;;;;;22.23;15.38;;;13.50;97.70;;;;;;5016420;28;20392;-72
2021/04/19 12:05:52;;;;;;;22.77;17.23;;;13.50;97.30;;;;;;4950635;29;20035;-72
2021/04/19 12:08:18;;;;;;;21.80;16.05;;;13.30;96.70;;;;;;4950647;28;20058;-72
2021/04/19 12:10:44;;;;;;;23.80;17.38;;;13.00;97.00;;;;;;4949477;28;20050;-72
2021/04/19 12:13:16;;;;;;;23.90;16.73;;;12.80;98.10;;;;;;5016465;28;20401;-72
2021/04/19 12:15:43;;;;;;;25.10;17.05;;;12.90;97.50;;;;;;4950997;28;20385;-72
2021/04/19 12:18:09;;;;;;;22.88;17.42;;;12.90;99.00;;;;;;4950489;28;20031;-72
2021/04/19 12:20:35;;;;;;;26.85;17.50;;;12.90;98.70;;;;;;4950382;28;20046;-72
2021/04/19 12:23:01;;;;;;;26.58;18.10;;;12.90;98.90;;;;;;4950625;28;20093;-72
2021/04/19 12:25:27;;;;;;;30.75;19.35;;;12.80;98.20;;;;;;4950361;28;20078;-72
2021/04/19 12:27:53;;;;;;;26.80;18.35;;;12.70;98.00;;;;;;4950228;28;20034;-72
2021/04/19 12:30:19;;;;;;;27.33;18.23;;;12.60;98.30;;;;;;4950172;28;20023;-72
2021/04/19 12:32:44;;;;;;;25.92;19.02;;;12.60;98.80;;;;;;4950550;28;20034;-72
2021/04/19 12:35:10;;;;;;;24.33;17.10;;;12.60;98.90;;;;;;4950897;29;20023;-72
2021/04/19 12:37:36;;;;;;;28.52;16.40;;;12.80;98.00;;;;;;4950844;28;20051;-72
2021/04/19 12:40:03;;;;;;;22.40;16.40;;;13.00;98.90;;;;;;4950575;28;20031;-73
2021/04/19 12:42:28;;;;;;;23.73;16.83;;;13.20;97.60;;;;;;4950133;28;20030;-73
2021/04/19 12:44:54;;;;;;;21.42;15.85;;;13.30;98.80;;;;;;5033037;28;20023;-73
2021/04/19 12:47:19;;;;;;;22.58;16.20;;;13.40;98.00;;;;;;4950231;29;20023;-73